sensor_id;sensor_type;location;lat;lon;timestamp;P1;durP1;ratioP1;P2;durP2;ratioP2
23360;SDS011;11852;50.082;18.554;2023-04-21T00:00:40;80.0;;;43.0;;
23360;SDS011;11852;50.082;18.554;2023-04-21T00:01:47;81.0;;;43.0;;
23360;SDS011;11852;50.082;18.554;2023-04-21T00:02:54;85.0;;;46.0;;
23360;SDS011;11852;50.082;18.554;2023-04-21T00:04:00;79.0;;;44.0;;
23360;SDS011;11852;50.082;18.554;2023-04-21T00:05:10;82.0;;;44.0;;
23360;SDS011;11852;50.082;18.554;2023-04-21T00:06:17;93.0;;;49.0;;
23360;SDS011;11852;50.082;18.554;2023-04-21T00:07:23;80.0;;;44.0;;
23360;SDS011;11852;50.082;18.554;2023-04-21T00:08:30;80.0;;;42.0;;
23360;SDS011;11852;50.082;18.554;2023-04-21T00:09:37;85.0;;;45.0;;
23360;SDS011;11852;50.082;18.554;2023-04-21T00:10:44;86.0;;;47.0;;
23360;SDS011;11852;50.082;18.554;2023-04-21T00:11:51;83.0;;;43.0;;
23360;SDS011;11852;50.082;18.554;2023-04-21T00:12:57;80.0;;;42.0;;
23360;SDS011;11852;50.082;18.554;2023-04-21T00:14:04;82.0;;;43.0;;
23360;SDS011;11852;50.082;18.554;2023-04-21T00:15:11;80.0;;;44.0;;
23360;SDS011;11852;50.082;18.554;2023-04-21T00:16:18;90.0;;;44.0;;
23360;SDS011;11852;50.082;18.554;2023-04-21T00:17:25;87.0;;;44.0;;
23360;SDS011;11852;50.082;18.554;2023-04-21T00:18:32;78.0;;;42.0;;
23360;SDS011;11852;50.082;18.554;2023-04-21T00:19:38;72.0;;;39.0;;
23360;SDS011;11852;50.082;18.554;2023-04-21T00:20:45;69.0;;;37.0;;
23360;SDS011;11852;50.082;18.554;2023-04-21T00:21:52;68.0;;;36.0;;
23360;SDS011;11852;50.082;18.554;2023-04-21T00:22:59;68.0;;;38.0;;
23360;SDS011;11852;50.082;18.554;2023-04-21T00:24:06;64.0;;;33.0;;
23360;SDS011;11852;50.082;18.554;2023-04-21T00:25:13;68.0;;;33.0;;
23360;SDS011;11852;50.082;18.554;2023-04-21T00:26:20;66.0;;;34.0;;
23360;SDS011;11852;50.082;18.554;2023-04-21T00:27:26;64.0;;;34.0;;
23360;SDS011;11852;50.082;18.554;2023-04-21T00:28:33;65.0;;;34.0;;
23360;SDS011;11852;50.082;18.554;2023-04-21T00:29:40;62.0;;;34.0;;
23360;SDS011;11852;50.082;18.554;2023-04-21T00:30:47;60.0;;;34.0;;
23360;SDS011;11852;50.082;18.554;2023-04-21T00:31:54;59.0;;;34.0;;
23360;SDS011;11852;50.082;18.554;2023-04-21T00:33:01;60.0;;;32.0;;
23360;SDS011;11852;50.082;18.554;2023-04-21T00:34:08;56.0;;;32.0;;
23360;SDS011;11852;50.082;18.554;2023-04-21T00:35:15;55.0;;;32.0;;
23360;SDS011;11852;50.082;18.554;2023-04-21T00:36:21;53.0;;;30.0;;
23360;SDS011;11852;50.082;18.554;2023-04-21T00:37:28;56.0;;;30.0;;
23360;SDS011;11852;50.082;18.554;2023-04-21T00:38:35;54.0;;;30.0;;
23360;SDS011;11852;50.082;18.554;2023-04-21T00:39:42;50.0;;;28.0;;
23360;SDS011;11852;50.082;18.554;2023-04-21T00:40:49;60.0;;;32.0;;
23360;SDS011;11852;50.082;18.554;2023-04-21T00:41:56;54.0;;;30.0;;
23360;SDS011;11852;50.082;18.554;2023-04-21T00:43:06;57.0;;;31.0;;
23360;SDS011;11852;50.082;18.554;2023-04-21T00:44:12;55.0;;;31.0;;
23360;SDS011;11852;50.082;18.554;2023-04-21T00:45:19;56.0;;;31.0;;
23360;SDS011;11852;50.082;18.554;2023-04-21T00:46:27;61.0;;;33.0;;
23360;SDS011;11852;50.082;18.554;2023-04-21T00:47:33;56.0;;;31.0;;
23360;SDS011;11852;50.082;18.554;2023-04-21T00:48:40;61.0;;;33.0;;
23360;SDS011;11852;50.082;18.554;2023-04-21T00:49:47;55.0;;;31.0;;
23360;SDS011;11852;50.082;18.554;2023-04-21T00:50:54;53.0;;;30.0;;
23360;SDS011;11852;50.082;18.554;2023-04-21T00:52:00;56.0;;;32.0;;
23360;SDS011;11852;50.082;18.554;2023-04-21T00:53:07;52.0;;;30.0;;
23360;SDS011;11852;50.082;18.554;2023-04-21T00:54:14;56.0;;;31.0;;
23360;SDS011;11852;50.082;18.554;2023-04-21T00:55:21;62.0;;;33.0;;
23360;SDS011;11852;50.082;18.554;2023-04-21T00:56:28;57.0;;;32.0;;
23360;SDS011;11852;50.082;18.554;2023-04-21T00:57:35;56.0;;;32.0;;
23360;SDS011;11852;50.082;18.554;2023-04-21T00:58:41;60.0;;;31.0;;
23360;SDS011;11852;50.082;18.554;2023-04-21T00:59:48;58.0;;;33.0;;
23360;SDS011;11852;50.082;18.554;2023-04-21T01:00:55;56.0;;;30.0;;
23360;SDS011;11852;50.082;18.554;2023-04-21T01:02:02;51.0;;;30.0;;
23360;SDS011;11852;50.082;18.554;2023-04-21T01:03:09;56.0;;;31.0;;
23360;SDS011;11852;50.082;18.554;2023-04-21T01:04:15;57.0;;;32.0;;
23360;SDS011;11852;50.082;18.554;2023-04-21T01:05:22;55.0;;;30.0;;
23360;SDS011;11852;50.082;18.554;2023-04-21T01:06:30;57.0;;;32.0;;
23360;SDS011;11852;50.082;18.554;2023-04-21T01:07:36;58.0;;;33.0;;
23360;SDS011;11852;50.082;18.554;2023-04-21T01:08:44;57.0;;;32.0;;
23360;SDS011;11852;50.082;18.554;2023-04-21T01:09:50;61.0;;;32.0;;
23360;SDS011;11852;50.082;18.554;2023-04-21T01:10:56;56.0;;;32.0;;
23360;SDS011;11852;50.082;18.554;2023-04-21T01:12:04;59.0;;;32.0;;
23360;SDS011;11852;50.082;18.554;2023-04-21T01:13:10;60.0;;;32.0;;
23360;SDS011;11852;50.082;18.554;2023-04-21T01:14:17;59.0;;;33.0;;
23360;SDS011;11852;50.082;18.554;2023-04-21T01:15:24;56.0;;;32.0;;
23360;SDS011;11852;50.082;18.554;2023-04-21T01:16:31;57.0;;;31.0;;
23360;SDS011;11852;50.082;18.554;2023-04-21T01:17:37;57.0;;;31.0;;
23360;SDS011;11852;50.082;18.554;2023-04-21T01:18:44;56.0;;;33.0;;
23360;SDS011;11852;50.082;18.554;2023-04-21T01:19:51;60.0;;;33.0;;
23360;SDS011;11852;50.082;18.554;2023-04-21T01:20:58;64.0;;;33.0;;
23360;SDS011;11852;50.082;18.554;2023-04-21T01:22:05;59.0;;;32.0;;
23360;SDS011;11852;50.082;18.554;2023-04-21T01:23:12;58.0;;;31.0;;
23360;SDS011;11852;50.082;18.554;2023-04-21T01:24:18;61.0;;;32.0;;
23360;SDS011;11852;50.082;18.554;2023-04-21T01:25:25;62.0;;;33.0;;
23360;SDS011;11852;50.082;18.554;2023-04-21T01:26:32;65.0;;;35.0;;
23360;SDS011;11852;50.082;18.554;2023-04-21T01:27:39;63.0;;;33.0;;
23360;SDS011;11852;50.082;18.554;2023-04-21T01:28:46;60.0;;;33.0;;
23360;SDS011;11852;50.082;18.554;2023-04-21T01:29:53;56.0;;;32.0;;
23360;SDS011;11852;50.082;18.554;2023-04-21T01:31:00;59.0;;;34.0;;
23360;SDS011;11852;50.082;18.554;2023-04-21T01:32:08;54.0;;;31.0;;
23360;SDS011;11852;50.082;18.554;2023-04-21T01:33:14;55.0;;;30.0;;
23360;SDS011;11852;50.082;18.554;2023-04-21T01:34:20;53.0;;;29.0;;
23360;SDS011;11852;50.082;18.554;2023-04-21T01:35:27;54.0;;;30.0;;
23360;SDS011;11852;50.082;18.554;2023-04-21T01:36:35;52.0;;;29.0;;
23360;SDS011;11852;50.082;18.554;2023-04-21T01:37:41;55.0;;;31.0;;
23360;SDS011;11852;50.082;18.554;2023-04-21T01:38:48;49.0;;;30.0;;
23360;SDS011;11852;50.082;18.554;2023-04-21T01:39:55;53.0;;;30.0;;
23360;SDS011;11852;50.082;18.554;2023-04-21T01:41:02;54.0;;;29.0;;
23360;SDS011;11852;50.082;18.554;2023-04-21T01:42:09;55.0;;;30.0;;
23360;SDS011;11852;50.082;18.554;2023-04-21T01:43:17;53.0;;;29.0;;
23360;SDS011;11852;50.082;18.554;2023-04-21T01:44:23;57.0;;;31.0;;
23360;SDS011;11852;50.082;18.554;2023-04-21T01:45:30;52.0;;;30.0;;
23360;SDS011;11852;50.082;18.554;2023-04-21T01:46:36;54.0;;;30.0;;
23360;SDS011;11852;50.082;18.554;2023-04-21T01:47:43;52.0;;;27.0;;
23360;SDS011;11852;50.082;18.554;2023-04-21T01:48:50;54.0;;;28.0;;
23360;SDS011;11852;50.082;18.554;2023-04-21T01:49:57;64.0;;;31.0;;
23360;SDS011;11852;50.082;18.554;2023-04-21T01:51:03;66.0;;;31.0;;
23360;SDS011;11852;50.082;18.554;2023-04-21T01:52:10;61.0;;;31.0;;
23360;SDS011;11852;50.082;18.554;2023-04-21T01:53:17;62.0;;;30.0;;
23360;SDS011;11852;50.082;18.554;2023-04-21T01:54:24;67.0;;;32.0;;
23360;SDS011;11852;50.082;18.554;2023-04-21T01:55:31;73.0;;;33.0;;
23360;SDS011;11852;50.082;18.554;2023-04-21T01:56:37;71.0;;;34.0;;
23360;SDS011;11852;50.082;18.554;2023-04-21T01:57:44;69.0;;;34.0;;
23360;SDS011;11852;50.082;18.554;2023-04-21T01:58:51;77.0;;;34.0;;
23360;SDS011;11852;50.082;18.554;2023-04-21T01:59:58;71.0;;;33.0;;
23360;SDS011;11852;50.082;18.554;2023-04-21T02:01:05;61.0;;;30.0;;
23360;SDS011;11852;50.082;18.554;2023-04-21T02:02:12;57.0;;;29.0;;
23360;SDS011;11852;50.082;18.554;2023-04-21T02:03:19;58.0;;;28.0;;
23360;SDS011;11852;50.082;18.554;2023-04-21T02:04:25;59.0;;;29.0;;
23360;SDS011;11852;50.082;18.554;2023-04-21T02:05:32;65.0;;;31.0;;
23360;SDS011;11852;50.082;18.554;2023-04-21T02:06:39;63.0;;;30.0;;
23360;SDS011;11852;50.082;18.554;2023-04-21T02:07:46;58.0;;;29.0;;
23360;SDS011;11852;50.082;18.554;2023-04-21T02:08:53;62.0;;;29.0;;
23360;SDS011;11852;50.082;18.554;2023-04-21T02:10:00;58.0;;;30.0;;
23360;SDS011;11852;50.082;18.554;2023-04-21T02:11:07;67.0;;;33.0;;
23360;SDS011;11852;50.082;18.554;2023-04-21T02:12:13;66.0;;;30.0;;
23360;SDS011;11852;50.082;18.554;2023-04-21T02:13:20;58.0;;;29.0;;
23360;SDS011;11852;50.082;18.554;2023-04-21T02:14:27;55.0;;;27.0;;
23360;SDS011;11852;50.082;18.554;2023-04-21T02:15:35;57.0;;;28.0;;
23360;SDS011;11852;50.082;18.554;2023-04-21T02:16:41;53.0;;;28.0;;
23360;SDS011;11852;50.082;18.554;2023-04-21T02:17:48;60.0;;;29.0;;
23360;SDS011;11852;50.082;18.554;2023-04-21T02:18:55;65.0;;;31.0;;
23360;SDS011;11852;50.082;18.554;2023-04-21T02:20:02;70.0;;;34.0;;
23360;SDS011;11852;50.082;18.554;2023-04-21T02:21:08;70.0;;;32.0;;
23360;SDS011;11852;50.082;18.554;2023-04-21T02:22:15;70.0;;;33.0;;
23360;SDS011;11852;50.082;18.554;2023-04-21T02:23:22;66.0;;;31.0;;
23360;SDS011;11852;50.082;18.554;2023-04-21T02:24:29;60.0;;;31.0;;
23360;SDS011;11852;50.082;18.554;2023-04-21T02:25:36;67.0;;;32.0;;
23360;SDS011;11852;50.082;18.554;2023-04-21T02:26:43;64.0;;;31.0;;
23360;SDS011;11852;50.082;18.554;2023-04-21T02:27:49;68.0;;;33.0;;
23360;SDS011;11852;50.082;18.554;2023-04-21T02:28:56;54.0;;;28.0;;
23360;SDS011;11852;50.082;18.554;2023-04-21T02:30:03;56.0;;;29.0;;
23360;SDS011;11852;50.082;18.554;2023-04-21T02:31:10;50.0;;;29.0;;
23360;SDS011;11852;50.082;18.554;2023-04-21T02:32:17;52.0;;;28.0;;
23360;SDS011;11852;50.082;18.554;2023-04-21T02:33:24;53.0;;;27.0;;
23360;SDS011;11852;50.082;18.554;2023-04-21T02:34:31;49.0;;;27.0;;
23360;SDS011;11852;50.082;18.554;2023-04-21T02:35:38;46.0;;;26.0;;
23360;SDS011;11852;50.082;18.554;2023-04-21T02:36:45;50.0;;;27.0;;
23360;SDS011;11852;50.082;18.554;2023-04-21T02:37:52;49.0;;;27.0;;
23360;SDS011;11852;50.082;18.554;2023-04-21T02:38:58;49.0;;;27.0;;
23360;SDS011;11852;50.082;18.554;2023-04-21T02:40:05;50.0;;;27.0;;
23360;SDS011;11852;50.082;18.554;2023-04-21T02:41:12;47.0;;;26.0;;
23360;SDS011;11852;50.082;18.554;2023-04-21T02:42:19;48.0;;;26.0;;
23360;SDS011;11852;50.082;18.554;2023-04-21T02:43:26;51.0;;;26.0;;
23360;SDS011;11852;50.082;18.554;2023-04-21T02:44:35;52.0;;;27.0;;
23360;SDS011;11852;50.082;18.554;2023-04-21T02:45:40;50.0;;;27.0;;
23360;SDS011;11852;50.082;18.554;2023-04-21T02:46:47;49.0;;;26.0;;
23360;SDS011;11852;50.082;18.554;2023-04-21T02:47:54;50.0;;;28.0;;
23360;SDS011;11852;50.082;18.554;2023-04-21T02:49:01;47.0;;;27.0;;
23360;SDS011;11852;50.082;18.554;2023-04-21T02:50:07;48.0;;;28.0;;
23360;SDS011;11852;50.082;18.554;2023-04-21T02:51:15;48.0;;;27.0;;
23360;SDS011;11852;50.082;18.554;2023-04-21T02:52:22;48.0;;;27.0;;
23360;SDS011;11852;50.082;18.554;2023-04-21T02:53:29;49.0;;;27.0;;
23360;SDS011;11852;50.082;18.554;2023-04-21T02:54:36;49.0;;;28.0;;
23360;SDS011;11852;50.082;18.554;2023-04-21T02:55:43;53.0;;;28.0;;
23360;SDS011;11852;50.082;18.554;2023-04-21T02:56:50;53.0;;;30.0;;
23360;SDS011;11852;50.082;18.554;2023-04-21T02:57:57;61.0;;;34.0;;
23360;SDS011;11852;50.082;18.554;2023-04-21T02:59:03;63.0;;;34.0;;
23360;SDS011;11852;50.082;18.554;2023-04-21T03:00:13;61.0;;;33.0;;
23360;SDS011;11852;50.082;18.554;2023-04-21T03:01:20;60.0;;;34.0;;
23360;SDS011;11852;50.082;18.554;2023-04-21T03:02:27;66.0;;;35.0;;
23360;SDS011;11852;50.082;18.554;2023-04-21T03:03:34;59.0;;;32.0;;
23360;SDS011;11852;50.082;18.554;2023-04-21T03:04:41;61.0;;;32.0;;
23360;SDS011;11852;50.082;18.554;2023-04-21T03:05:48;78.0;;;40.0;;
23360;SDS011;11852;50.082;18.554;2023-04-21T03:06:54;72.0;;;39.0;;
23360;SDS011;11852;50.082;18.554;2023-04-21T03:08:01;66.0;;;35.0;;
23360;SDS011;11852;50.082;18.554;2023-04-21T03:09:08;62.0;;;35.0;;
23360;SDS011;11852;50.082;18.554;2023-04-21T03:10:15;62.0;;;33.0;;
23360;SDS011;11852;50.082;18.554;2023-04-21T03:11:22;68.0;;;37.0;;
23360;SDS011;11852;50.082;18.554;2023-04-21T03:12:29;68.0;;;38.0;;
23360;SDS011;11852;50.082;18.554;2023-04-21T03:13:35;72.0;;;38.0;;
23360;SDS011;11852;50.082;18.554;2023-04-21T03:14:42;82.0;;;44.0;;
23360;SDS011;11852;50.082;18.554;2023-04-21T03:15:49;73.0;;;42.0;;
23360;SDS011;11852;50.082;18.554;2023-04-21T03:16:56;79.0;;;42.0;;
23360;SDS011;11852;50.082;18.554;2023-04-21T03:18:03;89.0;;;43.0;;
23360;SDS011;11852;50.082;18.554;2023-04-21T03:19:10;95.0;;;49.0;;
23360;SDS011;11852;50.082;18.554;2023-04-21T03:20:16;81.0;;;44.0;;
23360;SDS011;11852;50.082;18.554;2023-04-21T03:21:23;84.0;;;43.0;;
23360;SDS011;11852;50.082;18.554;2023-04-21T03:22:30;83.0;;;45.0;;
23360;SDS011;11852;50.082;18.554;2023-04-21T03:23:37;94.0;;;48.0;;
23360;SDS011;11852;50.082;18.554;2023-04-21T03:24:44;93.0;;;49.0;;
23360;SDS011;11852;50.082;18.554;2023-04-21T03:25:51;84.0;;;45.0;;
23360;SDS011;11852;50.082;18.554;2023-04-21T03:26:58;83.0;;;44.0;;
23360;SDS011;11852;50.082;18.554;2023-04-21T03:28:04;83.0;;;44.0;;
23360;SDS011;11852;50.082;18.554;2023-04-21T03:29:11;84.0;;;44.0;;
23360;SDS011;11852;50.082;18.554;2023-04-21T03:30:18;91.0;;;48.0;;
23360;SDS011;11852;50.082;18.554;2023-04-21T03:31:25;96.0;;;48.0;;
23360;SDS011;11852;50.082;18.554;2023-04-21T03:32:32;88.0;;;47.0;;
23360;SDS011;11852;50.082;18.554;2023-04-21T03:33:39;84.0;;;43.0;;
23360;SDS011;11852;50.082;18.554;2023-04-21T03:34:46;93.0;;;47.0;;
23360;SDS011;11852;50.082;18.554;2023-04-21T03:35:52;84.0;;;45.0;;
23360;SDS011;11852;50.082;18.554;2023-04-21T03:36:59;92.0;;;46.0;;
23360;SDS011;11852;50.082;18.554;2023-04-21T03:38:06;92.0;;;47.0;;
23360;SDS011;11852;50.082;18.554;2023-04-21T03:39:13;92.0;;;49.0;;
23360;SDS011;11852;50.082;18.554;2023-04-21T03:40:20;93.0;;;47.0;;
23360;SDS011;11852;50.082;18.554;2023-04-21T03:41:27;83.0;;;43.0;;
23360;SDS011;11852;50.082;18.554;2023-04-21T03:42:34;92.0;;;46.0;;
23360;SDS011;11852;50.082;18.554;2023-04-21T03:43:40;95.0;;;48.0;;
23360;SDS011;11852;50.082;18.554;2023-04-21T03:44:47;99.0;;;50.0;;
23360;SDS011;11852;50.082;18.554;2023-04-21T03:45:54;107.0;;;56.0;;
23360;SDS011;11852;50.082;18.554;2023-04-21T03:47:02;109.0;;;56.0;;
23360;SDS011;11852;50.082;18.554;2023-04-21T03:48:09;118.0;;;61.0;;
23360;SDS011;11852;50.082;18.554;2023-04-21T03:49:16;119.0;;;62.0;;
23360;SDS011;11852;50.082;18.554;2023-04-21T03:50:22;113.0;;;60.0;;
23360;SDS011;11852;50.082;18.554;2023-04-21T03:51:29;112.0;;;60.0;;
23360;SDS011;11852;50.082;18.554;2023-04-21T03:52:36;108.0;;;56.0;;
23360;SDS011;11852;50.082;18.554;2023-04-21T03:53:43;117.0;;;62.0;;
23360;SDS011;11852;50.082;18.554;2023-04-21T03:54:50;113.0;;;58.0;;
23360;SDS011;11852;50.082;18.554;2023-04-21T03:55:57;119.0;;;63.0;;
23360;SDS011;11852;50.082;18.554;2023-04-21T03:57:03;114.0;;;59.0;;
23360;SDS011;11852;50.082;18.554;2023-04-21T03:58:10;113.0;;;58.0;;
23360;SDS011;11852;50.082;18.554;2023-04-21T03:59:17;112.0;;;59.0;;
23360;SDS011;11852;50.082;18.554;2023-04-21T04:00:24;112.0;;;59.0;;
23360;SDS011;11852;50.082;18.554;2023-04-21T04:01:32;116.0;;;63.0;;
23360;SDS011;11852;50.082;18.554;2023-04-21T04:02:38;111.0;;;60.0;;
23360;SDS011;11852;50.082;18.554;2023-04-21T04:03:45;112.0;;;61.0;;
23360;SDS011;11852;50.082;18.554;2023-04-21T04:04:51;105.0;;;62.0;;
23360;SDS011;11852;50.082;18.554;2023-04-21T04:05:58;109.0;;;58.0;;
23360;SDS011;11852;50.082;18.554;2023-04-21T04:07:05;100.0;;;56.0;;
23360;SDS011;11852;50.082;18.554;2023-04-21T04:08:12;106.0;;;58.0;;
23360;SDS011;11852;50.082;18.554;2023-04-21T04:09:19;107.0;;;59.0;;
23360;SDS011;11852;50.082;18.554;2023-04-21T04:10:26;104.0;;;56.0;;
23360;SDS011;11852;50.082;18.554;2023-04-21T04:11:33;101.0;;;53.0;;
23360;SDS011;11852;50.082;18.554;2023-04-21T04:12:39;98.0;;;55.0;;
23360;SDS011;11852;50.082;18.554;2023-04-21T04:13:46;93.0;;;52.0;;
23360;SDS011;11852;50.082;18.554;2023-04-21T04:14:53;98.0;;;55.0;;
23360;SDS011;11852;50.082;18.554;2023-04-21T04:16:00;91.0;;;50.0;;
23360;SDS011;11852;50.082;18.554;2023-04-21T04:17:07;99.0;;;53.0;;
23360;SDS011;11852;50.082;18.554;2023-04-21T04:18:14;100.0;;;55.0;;
23360;SDS011;11852;50.082;18.554;2023-04-21T04:19:20;92.0;;;52.0;;
23360;SDS011;11852;50.082;18.554;2023-04-21T04:20:27;97.0;;;53.0;;
23360;SDS011;11852;50.082;18.554;2023-04-21T04:21:34;95.0;;;53.0;;
23360;SDS011;11852;50.082;18.554;2023-04-21T04:22:41;90.0;;;50.0;;
23360;SDS011;11852;50.082;18.554;2023-04-21T04:23:51;91.0;;;50.0;;
23360;SDS011;11852;50.082;18.554;2023-04-21T04:24:58;99.0;;;53.0;;
23360;SDS011;11852;50.082;18.554;2023-04-21T04:26:04;93.0;;;51.0;;
23360;SDS011;11852;50.082;18.554;2023-04-21T04:27:14;94.0;;;53.0;;
23360;SDS011;11852;50.082;18.554;2023-04-21T04:28:21;92.0;;;52.0;;
23360;SDS011;11852;50.082;18.554;2023-04-21T04:29:28;95.0;;;55.0;;
23360;SDS011;11852;50.082;18.554;2023-04-21T04:30:35;102.0;;;58.0;;
23360;SDS011;11852;50.082;18.554;2023-04-21T04:31:42;109.0;;;59.0;;
23360;SDS011;11852;50.082;18.554;2023-04-21T04:32:48;112.0;;;63.0;;
23360;SDS011;11852;50.082;18.554;2023-04-21T04:33:56;105.0;;;59.0;;
23360;SDS011;11852;50.082;18.554;2023-04-21T04:35:03;121.0;;;64.0;;
23360;SDS011;11852;50.082;18.554;2023-04-21T04:36:09;131.0;;;71.0;;
23360;SDS011;11852;50.082;18.554;2023-04-21T04:37:16;131.0;;;66.0;;
23360;SDS011;11852;50.082;18.554;2023-04-21T04:38:23;161.0;;;83.0;;
23360;SDS011;11852;50.082;18.554;2023-04-21T04:39:30;148.0;;;75.0;;
23360;SDS011;11852;50.082;18.554;2023-04-21T04:40:37;136.0;;;73.0;;
23360;SDS011;11852;50.082;18.554;2023-04-21T04:41:44;137.0;;;71.0;;
23360;SDS011;11852;50.082;18.554;2023-04-21T04:42:51;142.0;;;74.0;;
23360;SDS011;11852;50.082;18.554;2023-04-21T04:43:58;141.0;;;73.0;;
23360;SDS011;11852;50.082;18.554;2023-04-21T04:45:05;138.0;;;72.0;;
23360;SDS011;11852;50.082;18.554;2023-04-21T04:46:12;141.0;;;72.0;;
23360;SDS011;11852;50.082;18.554;2023-04-21T04:47:19;141.0;;;70.0;;
23360;SDS011;11852;50.082;18.554;2023-04-21T04:48:26;141.0;;;72.0;;
23360;SDS011;11852;50.082;18.554;2023-04-21T04:49:32;140.0;;;70.0;;
23360;SDS011;11852;50.082;18.554;2023-04-21T04:50:39;138.0;;;71.0;;
23360;SDS011;11852;50.082;18.554;2023-04-21T04:51:46;135.0;;;70.0;;
23360;SDS011;11852;50.082;18.554;2023-04-21T04:52:53;137.0;;;71.0;;
23360;SDS011;11852;50.082;18.554;2023-04-21T04:54:00;145.0;;;72.0;;
23360;SDS011;11852;50.082;18.554;2023-04-21T04:55:06;143.0;;;73.0;;
23360;SDS011;11852;50.082;18.554;2023-04-21T04:56:13;131.0;;;66.0;;
23360;SDS011;11852;50.082;18.554;2023-04-21T04:57:20;135.0;;;65.0;;
23360;SDS011;11852;50.082;18.554;2023-04-21T04:58:27;140.0;;;69.0;;
23360;SDS011;11852;50.082;18.554;2023-04-21T04:59:34;137.0;;;65.0;;
23360;SDS011;11852;50.082;18.554;2023-04-21T05:00:41;186.0;;;79.0;;
23360;SDS011;11852;50.082;18.554;2023-04-21T05:01:48;180.0;;;78.0;;
23360;SDS011;11852;50.082;18.554;2023-04-21T05:02:55;206.0;;;83.0;;
23360;SDS011;11852;50.082;18.554;2023-04-21T05:04:01;206.0;;;82.0;;
23360;SDS011;11852;50.082;18.554;2023-04-21T05:05:08;205.0;;;83.0;;
23360;SDS011;11852;50.082;18.554;2023-04-21T05:06:15;180.0;;;75.0;;
23360;SDS011;11852;50.082;18.554;2023-04-21T05:07:22;171.0;;;73.0;;
23360;SDS011;11852;50.082;18.554;2023-04-21T05:08:29;158.0;;;69.0;;
23360;SDS011;11852;50.082;18.554;2023-04-21T05:09:36;129.0;;;57.0;;
23360;SDS011;11852;50.082;18.554;2023-04-21T05:10:43;116.0;;;52.0;;
23360;SDS011;11852;50.082;18.554;2023-04-21T05:11:50;110.0;;;51.0;;
23360;SDS011;11852;50.082;18.554;2023-04-21T05:12:57;116.0;;;51.0;;
23360;SDS011;11852;50.082;18.554;2023-04-21T05:14:04;114.0;;;51.0;;
23360;SDS011;11852;50.082;18.554;2023-04-21T05:15:11;105.0;;;47.0;;
23360;SDS011;11852;50.082;18.554;2023-04-21T05:16:18;95.0;;;44.0;;
23360;SDS011;11852;50.082;18.554;2023-04-21T05:17:24;88.0;;;43.0;;
23360;SDS011;11852;50.082;18.554;2023-04-21T05:18:31;86.0;;;41.0;;
23360;SDS011;11852;50.082;18.554;2023-04-21T05:19:38;78.0;;;41.0;;
23360;SDS011;11852;50.082;18.554;2023-04-21T05:20:45;82.0;;;42.0;;
23360;SDS011;11852;50.082;18.554;2023-04-21T05:21:52;79.0;;;40.0;;
23360;SDS011;11852;50.082;18.554;2023-04-21T05:22:59;78.0;;;41.0;;
23360;SDS011;11852;50.082;18.554;2023-04-21T05:24:05;85.0;;;41.0;;
23360;SDS011;11852;50.082;18.554;2023-04-21T05:25:12;79.0;;;42.0;;
23360;SDS011;11852;50.082;18.554;2023-04-21T05:26:19;81.0;;;41.0;;
23360;SDS011;11852;50.082;18.554;2023-04-21T05:27:26;79.0;;;45.0;;
23360;SDS011;11852;50.082;18.554;2023-04-21T05:28:33;87.0;;;46.0;;
23360;SDS011;11852;50.082;18.554;2023-04-21T05:29:40;87.0;;;46.0;;
23360;SDS011;11852;50.082;18.554;2023-04-21T05:30:47;91.0;;;47.0;;
23360;SDS011;11852;50.082;18.554;2023-04-21T05:31:53;94.0;;;50.0;;
23360;SDS011;11852;50.082;18.554;2023-04-21T05:33:00;93.0;;;48.0;;
23360;SDS011;11852;50.082;18.554;2023-04-21T05:34:07;90.0;;;46.0;;
23360;SDS011;11852;50.082;18.554;2023-04-21T05:35:14;88.0;;;46.0;;
23360;SDS011;11852;50.082;18.554;2023-04-21T05:36:21;91.0;;;46.0;;
23360;SDS011;11852;50.082;18.554;2023-04-21T05:37:28;87.0;;;45.0;;
23360;SDS011;11852;50.082;18.554;2023-04-21T05:38:35;90.0;;;45.0;;
23360;SDS011;11852;50.082;18.554;2023-04-21T05:39:41;92.0;;;49.0;;
23360;SDS011;11852;50.082;18.554;2023-04-21T05:40:52;91.0;;;47.0;;
23360;SDS011;11852;50.082;18.554;2023-04-21T05:42:02;86.0;;;46.0;;
23360;SDS011;11852;50.082;18.554;2023-04-21T05:43:09;87.0;;;46.0;;
23360;SDS011;11852;50.082;18.554;2023-04-21T05:44:16;83.0;;;45.0;;
23360;SDS011;11852;50.082;18.554;2023-04-21T05:45:22;84.0;;;46.0;;
23360;SDS011;11852;50.082;18.554;2023-04-21T05:46:29;89.0;;;47.0;;
23360;SDS011;11852;50.082;18.554;2023-04-21T05:47:36;82.0;;;46.0;;
23360;SDS011;11852;50.082;18.554;2023-04-21T05:48:43;76.0;;;42.0;;
23360;SDS011;11852;50.082;18.554;2023-04-21T05:49:50;72.0;;;41.0;;
23360;SDS011;11852;50.082;18.554;2023-04-21T05:50:57;80.0;;;41.0;;
23360;SDS011;11852;50.082;18.554;2023-04-21T05:52:03;73.0;;;40.0;;
23360;SDS011;11852;50.082;18.554;2023-04-21T05:53:10;74.0;;;42.0;;
23360;SDS011;11852;50.082;18.554;2023-04-21T05:54:17;70.0;;;38.0;;
23360;SDS011;11852;50.082;18.554;2023-04-21T05:55:24;68.0;;;39.0;;
23360;SDS011;11852;50.082;18.554;2023-04-21T05:56:31;77.0;;;40.0;;
23360;SDS011;11852;50.082;18.554;2023-04-21T05:57:38;69.0;;;39.0;;
23360;SDS011;11852;50.082;18.554;2023-04-21T05:58:44;68.0;;;38.0;;
23360;SDS011;11852;50.082;18.554;2023-04-21T05:59:51;68.0;;;36.0;;
23360;SDS011;11852;50.082;18.554;2023-04-21T06:00:58;64.0;;;37.0;;
23360;SDS011;11852;50.082;18.554;2023-04-21T06:02:05;69.0;;;38.0;;
23360;SDS011;11852;50.082;18.554;2023-04-21T06:03:12;63.0;;;35.0;;
23360;SDS011;11852;50.082;18.554;2023-04-21T06:04:18;63.0;;;35.0;;
23360;SDS011;11852;50.082;18.554;2023-04-21T06:05:25;61.0;;;35.0;;
23360;SDS011;11852;50.082;18.554;2023-04-21T06:06:33;59.0;;;33.0;;
23360;SDS011;11852;50.082;18.554;2023-04-21T06:07:39;60.0;;;34.0;;
23360;SDS011;11852;50.082;18.554;2023-04-21T06:08:46;55.0;;;30.0;;
23360;SDS011;11852;50.082;18.554;2023-04-21T06:09:54;43.0;;;24.0;;
23360;SDS011;11852;50.082;18.554;2023-04-21T06:11:01;40.0;;;21.0;;
23360;SDS011;11852;50.082;18.554;2023-04-21T06:12:08;38.0;;;21.0;;
23360;SDS011;11852;50.082;18.554;2023-04-21T06:13:14;38.0;;;21.0;;
23360;SDS011;11852;50.082;18.554;2023-04-21T06:14:21;34.0;;;20.0;;
23360;SDS011;11852;50.082;18.554;2023-04-21T06:15:28;37.0;;;20.0;;
23360;SDS011;11852;50.082;18.554;2023-04-21T06:16:35;36.0;;;21.0;;
23360;SDS011;11852;50.082;18.554;2023-04-21T06:17:42;40.0;;;20.0;;
23360;SDS011;11852;50.082;18.554;2023-04-21T06:18:49;43.0;;;22.0;;
23360;SDS011;11852;50.082;18.554;2023-04-21T06:19:55;39.0;;;21.0;;
23360;SDS011;11852;50.082;18.554;2023-04-21T06:21:02;43.0;;;23.0;;
23360;SDS011;11852;50.082;18.554;2023-04-21T06:22:09;40.0;;;22.0;;
23360;SDS011;11852;50.082;18.554;2023-04-21T06:23:16;42.0;;;22.0;;
23360;SDS011;11852;50.082;18.554;2023-04-21T06:24:30;46.0;;;23.0;;
23360;SDS011;11852;50.082;18.554;2023-04-21T06:25:33;42.0;;;22.0;;
23360;SDS011;11852;50.082;18.554;2023-04-21T06:26:40;47.0;;;25.0;;
23360;SDS011;11852;50.082;18.554;2023-04-21T06:27:46;45.0;;;26.0;;
23360;SDS011;11852;50.082;18.554;2023-04-21T06:28:53;43.0;;;24.0;;
23360;SDS011;11852;50.082;18.554;2023-04-21T06:30:00;40.0;;;24.0;;
23360;SDS011;11852;50.082;18.554;2023-04-21T06:31:07;33.0;;;18.0;;
23360;SDS011;11852;50.082;18.554;2023-04-21T06:32:13;38.0;;;19.0;;
23360;SDS011;11852;50.082;18.554;2023-04-21T06:33:20;31.0;;;19.0;;
23360;SDS011;11852;50.082;18.554;2023-04-21T06:34:27;37.0;;;20.0;;
23360;SDS011;11852;50.082;18.554;2023-04-21T06:35:34;38.0;;;22.0;;